createdAt,value
2019-05-23T00:02:42.137Z,3.80
2019-05-23T00:05:30.798Z,2.65
2019-05-23T00:08:03.283Z,3.07
2019-05-23T00:10:40.026Z,4.28
2019-05-23T00:13:24.582Z,3.70
2019-05-23T00:15:54.815Z,3.33
2019-05-23T00:18:27.124Z,3.27
2019-05-23T00:20:58.108Z,3.57
2019-05-23T00:23:28.828Z,4.87
2019-05-23T00:25:59.508Z,4.03
2019-05-23T00:28:28.819Z,3.83
2019-05-23T00:31:02.801Z,4.10
2019-05-23T00:33:35.275Z,2.70
2019-05-23T00:36:05.377Z,3.27
2019-05-23T00:38:36.287Z,3.80
2019-05-23T00:41:07.596Z,3.00
2019-05-23T00:43:38.172Z,3.93
2019-05-23T00:46:08.608Z,6.13
2019-05-23T00:48:41.436Z,4.70
2019-05-23T00:51:11.948Z,6.10
2019-05-23T00:53:42.589Z,2.87
2019-05-23T00:56:13.543Z,3.90
2019-05-23T00:58:43.208Z,2.50
2019-05-23T01:01:13.559Z,3.67
2019-05-23T01:03:43.895Z,2.17
2019-05-23T01:06:14.299Z,4.13
2019-05-23T01:08:44.163Z,4.78
2019-05-23T01:11:13.876Z,2.67
2019-05-23T01:13:43.409Z,2.57
2019-05-23T01:16:13.790Z,3.50
2019-05-23T01:18:43.511Z,3.12
2019-05-23T01:21:36.014Z,4.60
2019-05-23T01:24:19.809Z,2.43
2019-05-23T01:26:49.933Z,2.90
2019-05-23T01:29:20.919Z,3.33
2019-05-23T01:31:53.857Z,3.87
2019-05-23T01:34:24.930Z,2.60
2019-05-23T01:36:55.961Z,3.57
2019-05-23T01:39:25.372Z,5.20
2019-05-23T01:41:55.559Z,5.30
2019-05-23T01:44:26.464Z,3.97
2019-05-23T01:46:56.530Z,3.93
2019-05-23T01:49:26.560Z,2.90
2019-05-23T01:51:57.065Z,4.10
2019-05-23T01:54:27.464Z,4.80
2019-05-23T01:56:56.792Z,5.93
2019-05-23T01:59:26.760Z,2.50
2019-05-23T02:01:56.559Z,2.70
2019-05-23T02:04:26.153Z,3.00
2019-05-23T02:06:56.634Z,4.57
2019-05-23T02:09:26.606Z,4.20
2019-05-23T02:11:55.938Z,4.00
2019-05-23T02:14:26.617Z,2.90
2019-05-23T02:16:58.208Z,5.60
2019-05-23T02:19:28.238Z,4.17
2019-05-23T02:21:57.831Z,3.90
2019-05-23T02:24:27.580Z,3.93
2019-05-23T02:26:56.734Z,4.57
2019-05-23T02:29:26.094Z,2.50
2019-05-23T02:31:55.762Z,2.72
2019-05-23T02:34:25.609Z,2.70
2019-05-23T02:36:57.645Z,3.20
2019-05-23T02:39:46.577Z,3.30
2019-05-23T02:42:30.669Z,3.27
2019-05-23T02:45:01.100Z,3.25
2019-05-23T02:47:38.928Z,2.80
2019-05-23T02:50:12.002Z,3.40
2019-05-23T02:52:46.327Z,5.35
2019-05-23T02:55:21.226Z,4.45
2019-05-23T02:57:52.248Z,3.70
2019-05-23T03:00:53.267Z,5.13
2019-05-23T03:03:19.441Z,2.50
2019-05-23T03:05:49.913Z,3.25
2019-05-23T03:08:19.965Z,3.47
2019-05-23T03:10:58.906Z,4.05
2019-05-23T03:13:32.430Z,4.80
2019-05-23T03:16:03.603Z,4.12
2019-05-23T03:18:37.886Z,4.57
2019-05-23T03:21:09.088Z,3.53
2019-05-23T03:23:38.762Z,5.92
2019-05-23T03:26:52.690Z,3.55
2019-05-23T03:29:22.349Z,3.73
2019-05-23T03:32:01.447Z,3.30
2019-05-23T03:34:34.925Z,6.10
2019-05-23T03:37:06.037Z,2.85
2019-05-23T03:39:35.912Z,5.25
2019-05-23T03:42:05.202Z,4.55
2019-05-23T03:44:34.410Z,3.77
2019-05-23T03:47:05.525Z,4.22
2019-05-23T03:49:34.685Z,3.10
2019-05-23T03:52:04.880Z,4.65
2019-05-23T03:54:35.757Z,3.55
2019-05-23T03:57:05.935Z,4.10
2019-05-23T03:59:36.261Z,4.53
2019-05-23T04:02:07.507Z,3.47
2019-05-23T04:04:38.282Z,4.17
2019-05-23T04:07:07.919Z,4.55
2019-05-23T04:09:37.822Z,3.40
2019-05-23T04:12:07.894Z,4.05
2019-05-23T04:14:37.387Z,5.70
2019-05-23T04:17:09.211Z,4.33
2019-05-23T04:19:38.941Z,5.53
2019-05-23T04:22:08.776Z,4.25
2019-05-23T04:24:38.504Z,3.53
2019-05-23T04:27:08.876Z,4.17
2019-05-23T04:29:38.117Z,3.30
2019-05-23T04:32:09.575Z,4.23
2019-05-23T04:34:39.193Z,3.52
2019-05-23T04:37:09.189Z,3.83
2019-05-23T04:39:38.573Z,7.17
2019-05-23T04:42:09.013Z,5.17
2019-05-23T04:44:43.472Z,4.23
2019-05-23T04:47:10.627Z,5.83
2019-05-23T04:49:40.457Z,5.00
2019-05-23T04:52:10.136Z,4.53
2019-05-23T04:54:39.912Z,4.97
2019-05-23T04:57:10.347Z,6.37
2019-05-23T04:59:40.973Z,4.60
2019-05-23T05:02:25.640Z,5.28
2019-05-23T05:04:43.924Z,6.37
2019-05-23T05:07:13.605Z,5.80
2019-05-23T05:09:44.189Z,5.12
2019-05-23T05:12:14.636Z,6.18
2019-05-23T05:14:44.973Z,5.60
2019-05-23T05:17:14.672Z,3.83
2019-05-23T05:19:44.090Z,5.90
2019-05-23T05:22:15.053Z,5.60
2019-05-23T05:24:45.370Z,5.40
2019-05-23T05:27:15.912Z,6.10
2019-05-23T05:29:45.219Z,5.73
2019-05-23T05:32:15.732Z,7.50
2019-05-23T05:34:45.642Z,5.20
2019-05-23T05:37:14.896Z,5.53
2019-05-23T05:39:45.785Z,8.04
2019-05-23T05:42:16.329Z,5.53
2019-05-23T05:44:45.719Z,5.55
2019-05-23T05:47:15.448Z,6.92
2019-05-23T05:49:45.255Z,4.28
2019-05-23T05:52:15.726Z,5.40
2019-05-23T05:54:45.268Z,5.92
2019-05-23T05:57:15.727Z,5.06
2019-05-23T05:59:45.142Z,5.28
2019-05-23T06:02:16.751Z,6.35
2019-05-23T06:04:46.358Z,6.17
2019-05-23T06:07:37.412Z,5.37
2019-05-23T06:10:15.086Z,5.60
2019-05-23T06:12:45.718Z,5.35
2019-05-23T06:15:15.962Z,5.08
2019-05-23T06:17:45.946Z,5.02
2019-05-23T06:20:15.887Z,5.15
2019-05-23T06:22:46.245Z,4.28
2019-05-23T06:25:16.539Z,5.17
2019-05-23T06:27:46.483Z,6.33
2019-05-23T06:30:18.988Z,4.60
2019-05-23T06:32:48.491Z,5.90
2019-05-23T06:35:17.712Z,7.77
2019-05-23T06:37:47.692Z,6.70
2019-05-23T06:40:18.157Z,5.27
2019-05-23T06:42:50.522Z,4.20
2019-05-23T06:45:19.735Z,5.50
2019-05-23T06:47:49.936Z,5.92
2019-05-23T06:50:20.536Z,4.93
2019-05-23T06:52:50.152Z,5.73
2019-05-23T06:55:19.701Z,6.77
2019-05-23T06:57:48.857Z,6.50
2019-05-23T07:00:22.324Z,7.22
2019-05-23T07:02:51.718Z,5.43
2019-05-23T07:05:26.245Z,4.50
2019-05-23T07:07:56.333Z,6.40
2019-05-23T07:10:25.680Z,6.70
2019-05-23T07:12:55.011Z,7.00
2019-05-23T07:15:25.461Z,6.67
2019-05-23T07:17:55.000Z,6.33
2019-05-23T07:20:24.660Z,6.97
2019-05-23T07:22:54.351Z,6.43
2019-05-23T07:25:24.779Z,4.70
2019-05-23T07:27:54.955Z,5.47
2019-05-23T07:30:26.745Z,4.93
2019-05-23T07:32:57.107Z,7.37
2019-05-23T07:35:26.669Z,5.20
2019-05-23T07:37:55.929Z,6.03
2019-05-23T07:40:27.335Z,6.97
2019-05-23T07:42:56.897Z,5.40
2019-05-23T07:45:32.455Z,5.42
2019-05-23T07:48:04.071Z,4.90
2019-05-23T07:50:33.631Z,4.30
2019-05-23T07:53:04.306Z,5.10
2019-05-23T07:55:38.777Z,4.97
2019-05-23T07:58:13.195Z,4.17
2019-05-23T08:00:44.955Z,4.10
2019-05-23T08:03:15.921Z,3.85
2019-05-23T08:05:46.603Z,3.53
2019-05-23T08:08:16.710Z,3.73
2019-05-23T08:10:47.499Z,6.40
2019-05-23T08:13:17.733Z,3.77
2019-05-23T08:15:47.871Z,3.80
2019-05-23T08:18:18.753Z,5.72
2019-05-23T08:20:47.969Z,4.40
2019-05-23T08:23:17.870Z,5.08
2019-05-23T08:25:48.063Z,4.33
2019-05-23T08:28:18.176Z,3.47
2019-05-23T08:30:47.780Z,3.75
2019-05-23T08:33:18.676Z,4.42
2019-05-23T08:35:48.112Z,3.02
2019-05-23T08:38:18.507Z,3.72
2019-05-23T08:40:48.831Z,4.22
2019-05-23T08:43:18.534Z,2.70
2019-05-23T08:45:49.123Z,3.98
2019-05-23T08:48:18.560Z,3.40
2019-05-23T08:50:51.415Z,3.00
2019-05-23T08:53:19.711Z,3.60
2019-05-23T08:55:50.122Z,3.47
2019-05-23T08:58:19.535Z,3.47
2019-05-23T09:00:49.625Z,2.65
2019-05-23T09:03:19.859Z,2.72
2019-05-23T09:05:49.640Z,2.60
2019-05-23T09:08:20.544Z,2.67
2019-05-23T09:10:50.866Z,3.95
2019-05-23T09:13:20.527Z,3.17
2019-05-23T09:15:52.726Z,2.55
2019-05-23T09:18:21.876Z,2.10
2019-05-23T09:20:51.380Z,3.00
2019-05-23T09:23:20.673Z,2.90
2019-05-23T09:25:49.842Z,2.08
2019-05-23T09:28:19.851Z,3.02
2019-05-23T09:30:50.946Z,2.58
2019-05-23T09:33:20.211Z,1.90
2019-05-23T09:35:50.003Z,3.27
2019-05-23T09:38:21.089Z,2.34
2019-05-23T09:40:50.340Z,2.87
2019-05-23T09:43:21.064Z,1.82
2019-05-23T09:45:50.200Z,2.12
2019-05-23T09:48:20.151Z,3.58
2019-05-23T09:50:50.108Z,2.06
2019-05-23T09:53:20.594Z,2.67
2019-05-23T09:55:50.103Z,2.58
2019-05-23T09:58:20.756Z,2.33
2019-05-23T10:00:50.533Z,2.00
2019-05-23T10:03:20.692Z,2.48
2019-05-23T10:05:50.506Z,2.37
2019-05-23T10:08:21.340Z,2.14
2019-05-23T10:10:50.590Z,3.27
2019-05-23T10:13:36.045Z,4.20
2019-05-23T10:16:06.895Z,2.46
2019-05-23T10:18:37.203Z,2.95
2019-05-23T10:21:06.480Z,1.92
2019-05-23T10:23:35.952Z,2.20
2019-05-23T10:26:06.252Z,2.58
2019-05-23T10:28:35.512Z,2.02
2019-05-23T10:31:08.053Z,2.22
2019-05-23T10:33:37.614Z,2.70
2019-05-23T10:36:07.479Z,2.67
2019-05-23T10:38:36.691Z,1.90
2019-05-23T10:41:06.499Z,1.87
2019-05-23T10:43:36.336Z,2.52
2019-05-23T10:46:06.103Z,1.87
2019-05-23T10:48:37.529Z,2.08
2019-05-23T10:51:07.604Z,1.93
2019-05-23T10:53:37.175Z,1.82
2019-05-23T10:56:06.357Z,1.93
2019-05-23T10:58:36.593Z,1.65
2019-05-23T11:01:06.954Z,2.70
2019-05-23T11:03:36.679Z,2.02
2019-05-23T11:06:16.069Z,2.22
2019-05-23T11:08:39.422Z,1.80
2019-05-23T11:11:13.886Z,1.80
2019-05-23T11:13:41.435Z,4.50
2019-05-23T11:16:10.865Z,2.30
2019-05-23T11:18:40.262Z,3.27
2019-05-23T11:21:09.841Z,2.17
2019-05-23T11:23:44.086Z,1.80
2019-05-23T11:26:13.785Z,2.55
2019-05-23T11:28:43.001Z,1.65
2019-05-23T11:31:13.692Z,3.50
2019-05-23T11:33:42.832Z,2.07
2019-05-23T11:36:12.921Z,2.03
2019-05-23T11:38:42.956Z,3.33
2019-05-23T11:41:12.846Z,1.60
2019-05-23T11:43:42.045Z,1.60
2019-05-23T11:46:21.541Z,2.00
2019-05-23T11:48:51.227Z,2.05
2019-05-23T11:51:25.043Z,1.80
2019-05-23T11:54:06.828Z,1.90
2019-05-23T11:56:25.509Z,2.20
2019-05-23T11:58:55.419Z,2.27
2019-05-23T12:01:30.448Z,2.40
2019-05-23T12:04:04.423Z,2.43
2019-05-23T12:06:54.424Z,1.90
2019-05-23T12:09:12.516Z,2.53
2019-05-23T12:11:42.870Z,2.20
2019-05-23T12:14:12.864Z,2.20
2019-05-23T12:16:42.864Z,1.97
2019-05-23T12:19:12.426Z,2.10
2019-05-23T12:21:41.729Z,1.80
2019-05-23T12:24:11.068Z,2.02
2019-05-23T12:26:40.609Z,2.22
2019-05-23T12:29:10.742Z,1.70
2019-05-23T12:31:42.877Z,1.30
2019-05-23T12:34:12.478Z,2.10
2019-05-23T12:36:42.039Z,2.60
2019-05-23T12:39:12.128Z,2.42
2019-05-23T12:41:43.124Z,1.50
2019-05-23T12:44:12.965Z,3.00
2019-05-23T12:46:42.523Z,1.47
2019-05-23T12:49:21.373Z,2.33
2019-05-23T12:51:51.106Z,1.80
2019-05-23T12:54:20.580Z,1.98
2019-05-23T12:56:50.224Z,1.53
2019-05-23T12:59:20.182Z,1.70
2019-05-23T13:01:51.159Z,1.95
2019-05-23T13:04:22.017Z,1.55
2019-05-23T13:06:52.082Z,1.30
2019-05-23T13:09:21.750Z,2.10
2019-05-23T13:11:51.912Z,2.43
2019-05-23T13:14:21.652Z,1.27
2019-05-23T13:16:51.630Z,2.02
2019-05-23T13:19:21.641Z,2.40
2019-05-23T13:21:52.030Z,1.60
2019-05-23T13:24:21.514Z,1.60
2019-05-23T13:26:51.541Z,3.35
2019-05-23T13:29:24.437Z,1.80
2019-05-23T13:31:55.734Z,1.43
2019-05-23T13:34:25.676Z,2.20
2019-05-23T13:36:55.339Z,1.40
2019-05-23T13:39:26.192Z,1.90
2019-05-23T13:41:55.912Z,2.70
2019-05-23T13:44:34.031Z,1.20
2019-05-23T13:46:59.630Z,1.60
2019-05-23T13:49:28.942Z,2.40
2019-05-23T13:51:58.930Z,1.80
2019-05-23T13:54:35.916Z,1.43
2019-05-23T13:57:03.711Z,2.03
2019-05-23T13:59:33.428Z,1.90
2019-05-23T14:02:03.492Z,1.33
2019-05-23T14:04:32.997Z,1.60
2019-05-23T14:07:02.447Z,1.70
2019-05-23T14:09:33.030Z,1.50
2019-05-23T14:14:34.097Z,1.67
2019-05-23T14:17:31.443Z,1.77
2019-05-23T14:20:01.048Z,1.62
2019-05-23T14:22:32.289Z,2.20
2019-05-23T14:25:01.605Z,2.40
2019-05-23T14:27:39.423Z,1.55
2019-05-23T14:30:18.782Z,1.67
2019-05-23T14:32:53.519Z,1.90
2019-05-23T14:35:28.179Z,2.17
2019-05-23T14:37:59.273Z,2.23
2019-05-23T14:40:28.901Z,1.40
2019-05-23T14:43:18.814Z,2.40
2019-05-23T14:46:09.115Z,2.03
2019-05-23T14:48:57.640Z,3.10
2019-05-23T14:51:44.651Z,1.73
2019-05-23T14:54:22.441Z,2.27
2019-05-23T14:56:51.737Z,2.12
2019-05-23T14:59:21.839Z,2.03
2019-05-23T15:01:52.680Z,2.40
2019-05-23T15:04:22.363Z,1.37
2019-05-23T15:06:51.962Z,2.27
2019-05-23T15:09:22.009Z,1.70
2019-05-23T15:11:51.694Z,1.70
2019-05-23T15:14:21.546Z,2.40
2019-05-23T15:16:51.507Z,1.73
2019-05-23T15:19:40.034Z,1.43
2019-05-23T15:21:51.897Z,1.93
2019-05-23T15:24:21.665Z,1.30
2019-05-23T15:26:51.111Z,2.00
2019-05-23T15:29:21.258Z,2.77
2019-05-23T15:32:01.919Z,1.37
2019-05-23T15:34:21.652Z,2.85
2019-05-23T15:36:51.301Z,1.67
2019-05-23T15:39:21.999Z,2.10
2019-05-23T15:41:51.635Z,1.92
2019-05-23T15:44:27.423Z,2.30
2019-05-23T15:46:52.252Z,1.92
2019-05-23T15:49:21.490Z,1.90
2019-05-23T15:52:08.756Z,1.07
2019-05-23T15:54:46.936Z,1.95
2019-05-23T15:57:34.351Z,2.10
2019-05-23T16:00:23.035Z,2.17
2019-05-23T16:02:59.521Z,2.20
2019-05-23T16:05:28.734Z,1.60
2019-05-23T16:07:59.252Z,2.12
2019-05-23T16:10:28.675Z,1.55
2019-05-23T16:12:59.901Z,1.95
2019-05-23T16:15:30.868Z,1.93
2019-05-23T16:18:00.937Z,1.80
2019-05-23T16:20:30.776Z,2.10
2019-05-23T16:23:00.224Z,2.67
2019-05-23T16:25:29.375Z,1.80
2019-05-23T16:27:59.433Z,2.07
2019-05-23T16:30:29.020Z,1.77
2019-05-23T16:32:59.264Z,1.50
2019-05-23T16:35:29.389Z,1.62
2019-05-23T16:37:59.193Z,1.57
2019-05-23T16:40:29.567Z,1.35
2019-05-23T16:42:59.625Z,1.57
2019-05-23T16:45:29.465Z,1.65
2019-05-23T16:47:59.439Z,1.45
2019-05-23T16:50:29.788Z,1.70
2019-05-23T16:52:59.858Z,1.47
2019-05-23T16:55:45.537Z,1.73
2019-05-23T16:58:22.664Z,1.60
2019-05-23T17:01:23.398Z,1.80
2019-05-23T17:04:04.320Z,1.53
2019-05-23T17:06:40.802Z,1.40
2019-05-23T17:10:06.818Z,1.70
2019-05-23T17:12:52.844Z,1.53
2019-05-23T17:15:37.757Z,1.00
2019-05-23T17:18:25.034Z,1.70
2019-05-23T17:21:16.897Z,1.47
2019-05-23T17:24:03.877Z,1.83
2019-05-23T17:27:11.209Z,1.60
2019-05-23T17:29:53.504Z,2.00
2019-05-23T17:32:26.601Z,1.70
2019-05-23T17:34:56.488Z,1.57
2019-05-23T17:37:26.444Z,1.40
2019-05-23T17:39:56.382Z,1.22
2019-05-23T17:42:26.593Z,1.80
2019-05-23T17:44:55.807Z,2.30
2019-05-23T17:47:25.167Z,1.73
2019-05-23T17:49:54.802Z,1.57
2019-05-23T17:52:24.492Z,1.40
2019-05-23T17:54:54.493Z,1.00
2019-05-23T17:57:23.785Z,1.63
2019-05-23T17:59:53.719Z,1.40
2019-05-23T18:02:24.812Z,1.60
2019-05-23T18:04:55.007Z,1.40
2019-05-23T18:07:24.593Z,1.85
2019-05-23T18:09:54.702Z,2.00
2019-05-23T18:12:23.948Z,1.73
2019-05-23T18:14:53.520Z,2.30
2019-05-23T18:17:23.547Z,1.50
2019-05-23T18:19:53.393Z,1.73
2019-05-23T18:22:23.021Z,1.50
2019-05-23T18:24:53.281Z,1.83
2019-05-23T18:27:23.542Z,1.30
2019-05-23T18:29:52.904Z,1.95
2019-05-23T18:32:25.099Z,2.03
2019-05-23T18:34:55.222Z,2.17
2019-05-23T18:37:24.716Z,2.00
2019-05-23T18:39:54.468Z,1.50
2019-05-23T18:42:24.360Z,1.27
2019-05-23T18:44:54.327Z,1.20
2019-05-23T18:47:29.360Z,1.40
2019-05-23T18:49:59.329Z,2.10
2019-05-23T18:52:28.744Z,1.93
2019-05-23T18:54:59.940Z,2.27
2019-05-23T18:57:30.624Z,2.60
2019-05-23T18:59:59.781Z,3.07
2019-05-23T19:02:30.040Z,2.00
2019-05-23T19:05:00.229Z,1.53
2019-05-23T19:07:29.486Z,1.33
2019-05-23T19:09:58.631Z,1.90
2019-05-23T19:12:28.288Z,3.40
2019-05-23T19:14:57.713Z,2.37
2019-05-23T19:17:27.068Z,1.60
2019-05-23T19:19:57.577Z,2.95
2019-05-23T19:22:27.941Z,1.70
2019-05-23T19:24:57.096Z,2.00
2019-05-23T19:27:26.638Z,1.80
2019-05-23T19:29:56.049Z,2.40
2019-05-23T19:32:26.113Z,4.30
2019-05-23T19:34:56.171Z,3.17
2019-05-23T19:37:26.333Z,1.98
2019-05-23T19:39:56.616Z,2.08
2019-05-23T19:42:26.959Z,1.67
2019-05-23T19:44:56.590Z,1.70
2019-05-23T19:47:26.586Z,1.60
2019-05-23T19:49:56.988Z,2.47
2019-05-23T19:52:27.343Z,1.93
2019-05-23T19:54:56.693Z,1.57
2019-05-23T19:57:26.659Z,1.37
2019-05-23T19:59:56.404Z,2.67
2019-05-23T20:02:42.157Z,3.30
2019-05-23T20:05:34.118Z,3.43
2019-05-23T20:08:03.804Z,1.60
2019-05-23T20:10:33.872Z,2.25
2019-05-23T20:13:03.685Z,2.10
2019-05-23T20:15:33.724Z,2.02
2019-05-23T20:18:05.170Z,2.05
2019-05-23T20:20:35.203Z,1.80
2019-05-23T20:23:04.698Z,2.40
2019-05-23T20:25:34.420Z,2.40
2019-05-23T20:28:03.882Z,1.77
2019-05-23T20:30:55.872Z,2.00
2019-05-23T20:33:25.166Z,1.75
2019-05-23T20:35:55.144Z,2.17
2019-05-23T20:38:26.158Z,2.37
2019-05-23T20:40:56.267Z,1.50
2019-05-23T20:43:27.457Z,2.30
2019-05-23T20:45:57.307Z,2.24
2019-05-23T20:48:27.969Z,2.28
2019-05-23T20:50:57.683Z,2.12
2019-05-23T20:53:27.450Z,2.28
2019-05-23T20:55:57.788Z,2.77
2019-05-23T20:58:27.825Z,2.90
2019-05-23T21:01:16.641Z,3.15
2019-05-23T21:03:47.039Z,2.50
2019-05-23T21:06:16.289Z,2.05
2019-05-23T21:08:46.251Z,2.37
2019-05-23T21:11:15.612Z,2.90
2019-05-23T21:13:44.888Z,2.58
2019-05-23T21:16:14.066Z,2.12
2019-05-23T21:18:43.744Z,1.70
2019-05-23T21:21:13.379Z,2.55
2019-05-23T21:23:43.206Z,2.37
2019-05-23T21:26:12.459Z,1.93
2019-05-23T21:28:42.099Z,2.17
2019-05-23T21:31:15.481Z,2.83
2019-05-23T21:33:45.292Z,2.53
2019-05-23T21:36:14.872Z,2.52
2019-05-23T21:38:44.173Z,3.40
2019-05-23T21:41:13.474Z,2.75
2019-05-23T21:43:43.006Z,2.43
2019-05-23T21:46:12.641Z,2.37
2019-05-23T21:48:42.270Z,1.77
2019-05-23T21:51:11.789Z,3.83
2019-05-23T21:53:41.335Z,2.50
2019-05-23T21:56:11.770Z,2.90
2019-05-23T21:58:41.304Z,2.05
2019-05-23T22:01:55.250Z,2.08
2019-05-23T22:04:29.994Z,2.30
2019-05-23T22:07:04.186Z,2.67
2019-05-23T22:09:34.129Z,2.70
2019-05-23T22:12:03.679Z,2.10
2019-05-23T22:14:33.497Z,1.93
2019-05-23T22:17:03.090Z,1.95
2019-05-23T22:19:33.620Z,2.87
2019-05-23T22:22:04.158Z,2.10
2019-05-23T22:24:33.373Z,3.93
2019-05-23T22:27:02.564Z,2.93
2019-05-23T22:29:32.055Z,3.47
2019-05-23T22:32:01.506Z,2.30
2019-05-23T22:34:49.791Z,2.13
2019-05-23T22:37:25.176Z,3.05
2019-05-23T22:39:55.280Z,2.95
2019-05-23T22:42:25.750Z,2.87
2019-05-23T22:44:55.161Z,2.43
2019-05-23T22:47:25.165Z,2.17
2019-05-23T22:49:54.520Z,2.77
2019-05-23T22:52:23.978Z,2.33
2019-05-23T22:54:53.204Z,2.67
2019-05-23T22:57:22.708Z,2.25
2019-05-23T22:59:52.140Z,2.60
2019-05-23T23:02:21.397Z,2.57
2019-05-23T23:04:50.667Z,2.98
2019-05-23T23:07:20.600Z,2.95
2019-05-23T23:09:49.835Z,2.30
2019-05-23T23:12:20.223Z,2.80
2019-05-23T23:14:49.792Z,3.47
2019-05-23T23:17:20.036Z,1.90
2019-05-23T23:19:49.244Z,2.27
2019-05-23T23:22:18.741Z,3.97
2019-05-23T23:24:47.887Z,3.02
2019-05-23T23:27:17.161Z,2.30
2019-05-23T23:29:46.646Z,2.33
2019-05-23T23:32:16.249Z,3.67
2019-05-23T23:34:46.035Z,3.57
2019-05-23T23:37:15.647Z,3.83
2019-05-23T23:39:45.189Z,2.40
2019-05-23T23:42:14.728Z,3.10
2019-05-23T23:44:43.120Z,2.90
2019-05-23T23:47:30.022Z,2.72
2019-05-23T23:50:17.392Z,3.50
2019-05-23T23:53:04.945Z,3.00
2019-05-23T23:55:51.909Z,4.92
2019-05-23T23:58:20.506Z,3.50
